Time;durP1;ratioP1;P1;durP2;ratioP2;P2;SDS_P1;SDS_P2;PMS_P1;PMS_P2;Temp;Humidity;BMP_temperature;BMP_pressure;BME280_temperature;BME280_humidity;BME280_pressure;Samples;Min_cycle;Max_cycle;Signal;HPM_P1;HPM_P2
2022/09/20 00:01:40;;;;;;;8.63;2.50;;;;;;;10.29;100.00;99557.09;5069095;28;20193;-83
2022/09/20 00:04:10;;;;;;;7.63;2.00;;;;;;;10.23;100.00;99552.19;5075449;28;20741;-83
2022/09/20 00:06:38;;;;;;;6.23;2.10;;;;;;;10.41;100.00;99552.06;5065064;28;20270;-82
2022/09/20 00:09:08;;;;;;;5.70;1.97;;;;;;;10.40;100.00;99553.00;5074686;28;20208;-83
2022/09/20 00:11:37;;;;;;;6.73;2.10;;;;;;;10.35;100.00;99550.63;5075566;28;20188;-83
2022/09/20 00:14:08;;;;;;;9.60;2.20;;;;;;;10.48;100.00;99542.81;5074690;28;20231;-83
2022/09/20 00:16:39;;;;;;;9.00;2.20;;;;;;;10.43;100.00;99543.09;5076981;28;20253;-83
2022/09/20 00:19:14;;;;;;;7.00;2.00;;;;;;;10.32;100.00;99538.38;5072966;28;20192;-82
2022/09/20 00:21:44;;;;;;;6.13;2.17;;;;;;;10.30;100.00;99542.06;5069324;28;20200;-82
2022/09/20 00:24:13;;;;;;;7.63;2.23;;;;;;;10.15;100.00;99543.78;5072150;28;20262;-82
2022/09/20 00:26:42;;;;;;;7.20;2.20;;;;;;;10.31;100.00;99544.63;5072496;28;20199;-83
2022/09/20 00:29:12;;;;;;;8.50;1.97;;;;;;;10.30;100.00;99542.94;5063547;28;20262;-82
2022/09/20 00:31:41;;;;;;;8.23;2.47;;;;;;;10.16;100.00;99552.56;5073705;28;20192;-82
2022/09/20 00:36:59;;;;;;;8.70;2.10;;;;;;;9.99;100.00;99559.63;5071445;28;20259;-83
2022/09/20 00:39:28;;;;;;;8.10;2.10;;;;;;;9.94;100.00;99563.47;5072395;28;20233;-83
2022/09/20 00:41:56;;;;;;;7.97;2.30;;;;;;;9.93;100.00;99567.06;5068268;28;20184;-83
2022/09/20 00:44:53;;;;;;;7.40;2.33;;;;;;;9.97;100.00;99568.59;5067040;28;20223;-83
2022/09/20 00:47:29;;;;;;;5.40;1.90;;;;;;;9.99;100.00;99567.59;5074648;28;20196;-83
2022/09/20 00:50:05;;;;;;;4.47;2.07;;;;;;;9.88;100.00;99561.19;5074188;28;20227;-82
2022/09/20 00:52:35;;;;;;;8.37;2.40;;;;;;;9.85;100.00;99553.41;5071978;28;20222;-83
2022/09/20 00:55:09;;;;;;;8.93;2.23;;;;;;;9.83;100.00;99571.13;5055748;28;20254;-83
2022/09/20 00:57:38;;;;;;;9.60;2.63;;;;;;;9.92;100.00;99563.56;5053127;28;20200;-83
2022/09/20 01:00:12;;;;;;;5.90;2.17;;;;;;;9.91;100.00;99559.22;5071489;28;20200;-83
2022/09/20 01:02:43;;;;;;;7.73;2.13;;;;;;;9.99;100.00;99561.44;5067391;28;20257;-83
2022/09/20 01:05:15;;;;;;;7.50;2.93;;;;;;;9.99;100.00;99562.28;5069827;28;20224;-83
2022/09/20 01:07:48;;;;;;;8.10;2.50;;;;;;;10.01;100.00;99565.69;5067998;28;20246;-83
2022/09/20 01:10:17;;;;;;;7.60;2.47;;;;;;;9.98;100.00;99563.22;5074147;28;20197;-83
2022/09/20 01:12:47;;;;;;;7.07;2.37;;;;;;;9.99;100.00;99556.16;5067527;28;20197;-83
2022/09/20 01:15:17;;;;;;;10.47;2.40;;;;;;;9.82;100.00;99553.56;5076341;28;20677;-82
2022/09/20 01:17:51;;;;;;;5.53;1.97;;;;;;;9.77;100.00;99563.56;5076321;28;20250;-83
2022/09/20 01:20:25;;;;;;;9.13;2.40;;;;;;;9.66;100.00;99548.28;5070774;28;20196;-83
2022/09/20 01:23:07;;;;;;;4.83;2.43;;;;;;;9.70;100.00;99555.09;5068979;28;20250;-82
2022/09/20 01:26:12;;;;;;;5.03;2.43;;;;;;;9.68;100.00;99556.97;5069982;28;20649;-82
2022/09/20 01:28:46;;;;;;;13.63;2.80;;;;;;;9.70;100.00;99560.38;5068268;28;20204;-82
2022/09/20 01:31:20;;;;;;;12.07;2.80;;;;;;;9.68;100.00;99556.97;5069538;28;20196;-82
2022/09/20 01:33:53;;;;;;;9.07;2.70;;;;;;;9.65;100.00;99565.03;5071414;28;20217;-82
2022/09/20 01:36:34;;;;;;;9.10;2.80;;;;;;;9.64;100.00;99566.84;5069450;28;20279;-82
2022/09/20 01:39:12;;;;;;;7.53;2.93;;;;;;;9.65;100.00;99560.63;5023761;28;20225;-83
2022/09/20 01:41:46;;;;;;;9.50;3.00;;;;;;;9.58;100.00;99559.25;5029167;28;20189;-82
2022/09/20 01:44:28;;;;;;;6.07;3.40;;;;;;;9.56;100.00;99557.63;5029100;28;20221;-83
2022/09/20 01:47:01;;;;;;;7.50;3.00;;;;;;;9.52;100.00;99554.28;5028578;28;20247;-83
2022/09/20 01:49:41;;;;;;;7.63;3.17;;;;;;;9.54;100.00;99551.56;5032429;28;20299;-82
2022/09/20 01:52:35;;;;;;;6.60;3.17;;;;;;;9.57;100.00;99546.13;5032122;28;20228;-82
2022/09/20 01:55:40;;;;;;;7.47;3.23;;;;;;;9.60;100.00;99556.53;5031258;28;20197;-82
2022/09/20 01:58:47;;;;;;;11.50;3.47;;;;;;;9.55;100.00;99559.41;5028533;28;20236;-82
2022/09/20 02:02:08;;;;;;;11.27;2.97;;;;;;;9.59;100.00;99560.09;5025310;28;20208;-83
2022/09/20 02:05:11;;;;;;;9.23;3.27;;;;;;;9.57;100.00;99557.56;5065052;28;20226;-83
2022/09/20 02:08:05;;;;;;;8.67;3.50;;;;;;;9.42;100.00;99559.19;5070942;28;20194;-83
2022/09/20 02:11:06;;;;;;;7.83;3.80;;;;;;;9.27;100.00;99572.38;5071712;28;20200;-83
2022/09/20 02:13:51;;;;;;;9.00;3.90;;;;;;;9.34;100.00;99564.03;5046654;28;20212;-83
2022/09/20 02:16:36;;;;;;;7.93;3.63;;;;;;;9.36;100.00;99574.53;5034728;28;20223;-83
2022/09/20 02:19:41;;;;;;;10.20;4.00;;;;;;;9.33;100.00;99578.19;5069894;28;20211;-82
2022/09/20 02:22:23;;;;;;;9.70;4.53;;;;;;;9.31;100.00;99589.78;5061187;28;20273;-82
2022/09/20 02:25:06;;;;;;;8.37;4.60;;;;;;;9.32;100.00;99589.69;5069864;28;20291;-82
2022/09/20 02:27:45;;;;;;;10.50;4.20;;;;;;;9.32;100.00;99584.41;5078244;28;20196;-82
2022/09/20 02:30:29;;;;;;;9.80;4.07;;;;;;;9.33;100.00;99585.25;5071073;28;20242;-83
2022/09/20 02:33:13;;;;;;;10.70;4.50;;;;;;;9.16;100.00;99578.19;5068530;28;20197;-82
2022/09/20 02:35:52;;;;;;;8.87;4.67;;;;;;;9.23;100.00;99589.31;5069873;28;20195;-82
2022/09/20 02:38:33;;;;;;;11.10;4.80;;;;;;;9.08;100.00;99577.75;5074188;28;20196;-83
2022/09/20 02:41:38;;;;;;;9.50;4.33;;;;;;;9.09;100.00;99580.31;5066621;28;20196;-82
2022/09/20 02:44:15;;;;;;;8.30;4.30;;;;;;;8.94;100.00;99574.94;5069652;28;20244;-83
2022/09/20 02:46:52;;;;;;;9.17;4.50;;;;;;;9.01;100.00;99574.56;5069947;28;20191;-83
2022/09/20 02:49:30;;;;;;;11.03;4.37;;;;;;;9.01;100.00;99579.84;5070373;28;20365;-83
2022/09/20 02:52:04;;;;;;;10.70;4.43;;;;;;;9.02;100.00;99578.06;5069572;28;20245;-83
2022/09/20 02:54:42;;;;;;;10.70;4.23;;;;;;;8.99;100.00;99571.16;5068000;28;20238;-83
2022/09/20 02:57:21;;;;;;;9.03;4.37;;;;;;;8.98;100.00;99574.75;5066653;28;20193;-83
2022/09/20 02:59:57;;;;;;;13.80;3.80;;;;;;;8.89;100.00;99567.28;5072939;28;20197;-82
2022/09/20 03:02:31;;;;;;;11.23;4.20;;;;;;;8.80;100.00;99573.88;5069724;28;20196;-83
2022/09/20 03:05:19;;;;;;;13.37;4.07;;;;;;;8.88;100.00;99571.72;5072401;28;20219;-83
2022/09/20 03:08:02;;;;;;;9.60;3.97;;;;;;;8.74;100.00;99575.97;5071670;28;20663;-82
2022/09/20 03:10:37;;;;;;;9.57;4.07;;;;;;;8.84;100.00;99572.78;5066229;28;20342;-82
2022/09/20 03:13:18;;;;;;;9.27;3.73;;;;;;;8.89;100.00;99578.69;5072592;28;20307;-84
2022/09/20 03:15:58;;;;;;;16.13;4.63;;;;;;;8.97;100.00;99583.56;5045128;28;20227;-83
2022/09/20 03:18:36;;;;;;;13.77;4.50;;;;;;;8.97;100.00;99586.22;5040623;28;20278;-82
2022/09/20 03:21:21;;;;;;;8.37;4.10;;;;;;;8.93;100.00;99578.53;5045504;28;20193;-83
2022/09/20 03:24:00;;;;;;;11.53;4.43;;;;;;;8.94;100.00;99586.38;5044200;28;20228;-83
2022/09/20 03:26:41;;;;;;;11.33;4.40;;;;;;;8.91;100.00;99583.03;5045292;28;20235;-82
2022/09/20 03:29:25;;;;;;;12.50;5.00;;;;;;;8.86;100.00;99586.75;5049132;28;20196;-83
2022/09/20 03:32:12;;;;;;;14.03;4.33;;;;;;;8.96;100.00;99586.28;5050383;28;20199;-83
2022/09/20 03:34:54;;;;;;;9.07;4.37;;;;;;;8.92;100.00;99593.53;5065239;28;20199;-83
2022/09/20 03:37:38;;;;;;;14.50;5.13;;;;;;;8.83;100.00;99592.19;5066480;28;20192;-83
2022/09/20 03:40:33;;;;;;;14.10;5.23;;;;;;;8.85;100.00;99589.47;5068116;28;20196;-83
2022/09/20 03:43:14;;;;;;;11.37;4.83;;;;;;;8.86;100.00;99599.09;5067759;28;20196;-83
2022/09/20 03:46:00;;;;;;;12.23;5.07;;;;;;;8.84;100.00;99593.91;5056697;28;20231;-82
2022/09/20 03:49:13;;;;;;;11.77;4.57;;;;;;;8.81;100.00;99594.06;5071923;28;20204;-83
2022/09/20 03:51:52;;;;;;;11.63;5.17;;;;;;;8.76;100.00;99596.06;5073994;28;20718;-83
2022/09/20 03:54:42;;;;;;;13.87;5.87;;;;;;;8.79;100.00;99588.00;5070654;28;20208;-83
2022/09/20 03:57:31;;;;;;;14.87;5.33;;;;;;;8.86;100.00;99601.75;5075374;28;20231;-83
2022/09/20 04:00:27;;;;;;;8.07;5.47;;;;;;;8.80;100.00;99599.44;5070503;28;20201;-82
2022/09/20 04:03:33;;;;;;;12.37;6.00;;;;;;;8.68;100.00;99595.59;5067137;28;20200;-82
2022/09/20 04:06:16;;;;;;;16.00;5.73;;;;;;;8.61;100.00;99602.13;5076694;28;20696;-83
2022/09/20 04:09:05;;;;;;;11.90;6.53;;;;;;;8.70;100.00;99595.53;5070848;28;20250;-83
2022/09/20 04:11:43;;;;;;;13.87;6.50;;;;;;;8.73;100.00;99595.38;5074941;28;20230;-83
2022/09/20 04:14:17;;;;;;;14.43;7.77;;;;;;;8.46;100.00;99602.84;5075189;28;20328;-83
2022/09/20 04:16:53;;;;;;;15.67;7.37;;;;;;;8.56;100.00;99601.47;5013348;28;20194;-83
2022/09/20 04:19:28;;;;;;;14.70;7.20;;;;;;;8.58;100.00;99610.16;5006123;28;20684;-83
2022/09/20 04:22:02;;;;;;;15.43;8.20;;;;;;;8.57;100.00;99606.69;5007867;28;20199;-84
2022/09/20 04:24:45;;;;;;;12.80;7.87;;;;;;;8.32;100.00;99598.22;5010421;28;20202;-83
2022/09/20 04:27:20;;;;;;;16.07;8.20;;;;;;;8.45;100.00;99609.91;5010547;28;20202;-82
2022/09/20 04:29:58;;;;;;;14.53;8.27;;;;;;;8.46;100.00;99600.22;5010536;28;20190;-83
2022/09/20 04:32:35;;;;;;;15.33;8.37;;;;;;;8.45;100.00;99602.00;5013018;28;20229;-82
2022/09/20 04:38:09;;;;;;;14.97;8.23;;;;;;;8.36;100.00;99610.34;5073276;28;20249;-83
2022/09/20 04:40:59;;;;;;;19.60;8.43;;;;;;;8.10;100.00;99611.53;5072278;28;20203;-83
2022/09/20 04:44:08;;;;;;;17.93;8.37;;;;;;;7.99;100.00;99617.31;5071214;28;20249;-83
2022/09/20 04:47:01;;;;;;;12.60;8.17;;;;;;;8.00;100.00;99626.09;5074685;28;20227;-83
2022/09/20 04:49:59;;;;;;;19.53;8.93;;;;;;;8.16;100.00;99635.00;5010625;28;20229;-83
2022/09/20 04:53:10;;;;;;;17.67;9.40;;;;;;;8.04;100.00;99633.81;4934216;29;20209;-83
2022/09/20 04:56:00;;;;;;;15.47;9.23;;;;;;;8.20;100.00;99635.72;4930041;29;20208;-82
2022/09/20 04:58:43;;;;;;;17.73;9.07;;;;;;;8.25;100.00;99628.44;4936074;29;20296;-83
2022/09/20 05:01:43;;;;;;;14.10;8.70;;;;;;;8.23;100.00;99635.59;4933206;29;20201;-82
2022/09/20 05:04:50;;;;;;;11.80;8.53;;;;;;;8.33;100.00;99631.59;4933215;29;20281;-83
2022/09/20 05:07:49;;;;;;;17.80;8.93;;;;;;;8.30;100.00;99642.31;4954929;28;20202;-83
2022/09/20 05:10:48;;;;;;;15.80;8.43;;;;;;;8.26;100.00;99646.00;5035183;28;20248;-83
2022/09/20 05:13:32;;;;;;;17.43;9.10;;;;;;;8.16;100.00;99650.84;5019306;28;20196;-84
2022/09/20 05:16:05;;;;;;;13.47;8.40;;;;;;;8.06;100.00;99652.19;5080236;28;20230;-83
2022/09/20 05:19:07;;;;;;;13.30;8.50;;;;;;;8.25;100.00;99652.19;5079990;28;20188;-83
2022/09/20 05:22:02;;;;;;;16.77;9.07;;;;;;;8.28;100.00;99667.88;5057692;28;20187;-83
2022/09/20 05:24:54;;;;;;;14.27;8.03;;;;;;;8.43;100.00;99663.72;5077960;28;20193;-82
2022/09/20 05:27:36;;;;;;;16.00;9.33;;;;;;;8.52;100.00;99664.13;5083661;28;20188;-83
2022/09/20 05:30:12;;;;;;;16.57;10.33;;;;;;;8.53;100.00;99660.56;5081951;28;20206;-83
2022/09/20 05:32:48;;;;;;;19.07;11.47;;;;;;;8.50;100.00;99666.00;5080465;27;20230;-83
2022/09/20 05:35:24;;;;;;;15.83;10.83;;;;;;;8.43;100.00;99659.28;5078433;28;20226;-83
2022/09/20 05:38:04;;;;;;;15.30;9.87;;;;;;;8.53;100.00;99662.34;5073403;28;20249;-83
2022/09/20 05:40:44;;;;;;;16.03;8.97;;;;;;;8.43;100.00;99658.44;5074377;28;20249;-83
2022/09/20 05:43:19;;;;;;;14.27;8.50;;;;;;;8.51;100.00;99664.22;5072576;28;20223;-84
2022/09/20 05:46:01;;;;;;;14.53;8.17;;;;;;;8.65;100.00;99664.41;5071999;28;20702;-84
2022/09/20 05:48:39;;;;;;;14.10;8.03;;;;;;;8.65;100.00;99661.75;5074470;28;20204;-83
2022/09/20 05:51:22;;;;;;;15.53;8.00;;;;;;;8.59;100.00;99660.28;5071578;28;20227;-84
2022/09/20 05:54:07;;;;;;;15.80;8.10;;;;;;;8.57;100.00;99661.25;5075748;28;20196;-84
2022/09/20 05:56:45;;;;;;;16.83;7.67;;;;;;;8.70;100.00;99666.84;5071737;28;20222;-83
2022/09/20 05:59:34;;;;;;;18.50;8.37;;;;;;;8.67;100.00;99666.97;5072857;28;20202;-82
2022/09/20 06:02:16;;;;;;;15.03;7.63;;;;;;;8.57;100.00;99663.91;5070403;28;20204;-82
2022/09/20 06:04:55;;;;;;;14.97;8.20;;;;;;;8.70;100.00;99664.19;5072214;28;20204;-83
2022/09/20 06:07:37;;;;;;;13.87;8.03;;;;;;;8.76;100.00;99670.03;5070135;28;20219;-83
2022/09/20 06:10:30;;;;;;;17.93;8.87;;;;;;;8.83;100.00;99668.78;5072752;28;20195;-83
2022/09/20 06:13:15;;;;;;;18.47;8.33;;;;;;;8.78;100.00;99673.47;5069134;28;20192;-83
2022/09/20 06:15:51;;;;;;;15.33;8.53;;;;;;;8.80;100.00;99668.97;5047164;28;20275;-83
2022/09/20 06:18:27;;;;;;;18.07;9.10;;;;;;;8.80;100.00;99676.88;5047773;28;20251;-83
2022/09/20 06:21:06;;;;;;;16.67;9.13;;;;;;;8.78;100.00;99680.50;5043700;28;20219;-83
2022/09/20 06:23:35;;;;;;;16.37;8.47;;;;;;;8.62;100.00;99684.84;5048824;28;20235;-83
2022/09/20 06:26:09;;;;;;;19.77;9.87;;;;;;;8.41;100.00;99686.69;5047309;28;20722;-83
2022/09/20 06:28:41;;;;;;;17.07;8.87;;;;;;;8.62;100.00;99682.19;5050979;28;20201;-82
2022/09/20 06:31:11;;;;;;;20.23;8.83;;;;;;;8.77;100.00;99692.84;5041261;28;20215;-83
2022/09/20 06:33:49;;;;;;;16.97;8.93;;;;;;;8.87;100.00;99687.97;5055343;28;20196;-83
2022/09/20 06:42:02;;;;;;;19.37;9.40;;;;;;;8.95;100.00;99687.63;5071703;28;20704;-85
2022/09/20 06:44:30;;;;;;;14.23;8.87;;;;;;;9.04;100.00;99685.38;5053346;28;20246;-84
2022/09/20 06:47:02;;;;;;;17.57;8.90;;;;;;;9.17;100.00;99690.94;5085458;28;20220;-84
2022/09/20 06:49:34;;;;;;;15.93;8.60;;;;;;;9.13;100.00;99694.66;5086223;28;20227;-84
2022/09/20 06:52:05;;;;;;;21.70;8.40;;;;;;;9.05;100.00;99697.66;5083795;28;20233;-85
2022/09/20 06:54:34;;;;;;;26.90;8.83;;;;;;;9.26;100.00;99694.88;5083926;28;20187;-84
2022/09/20 06:57:06;;;;;;;15.17;8.23;;;;;;;9.21;100.00;99697.75;5087030;28;20192;-84
2022/09/20 06:59:34;;;;;;;14.77;8.50;;;;;;;9.33;100.00;99696.28;5084705;28;20709;-84
2022/09/20 07:02:03;;;;;;;17.87;8.50;;;;;;;9.50;100.00;99695.44;5090439;28;20192;-85
2022/09/20 07:04:33;;;;;;;16.73;8.37;;;;;;;9.63;100.00;99699.16;5087757;28;20200;-83
2022/09/20 07:07:01;;;;;;;20.60;8.13;;;;;;;9.69;100.00;99690.94;5077170;28;20759;-85
2022/09/20 07:09:36;;;;;;;17.47;8.20;;;;;;;9.75;100.00;99682.69;5074410;28;20219;-84
2022/09/20 07:12:10;;;;;;;15.63;7.83;;;;;;;9.87;100.00;99689.97;5069143;28;20192;-84
2022/09/20 07:14:39;;;;;;;17.53;8.37;;;;;;;9.97;100.00;99674.47;5076898;28;20199;-84
2022/09/20 07:17:08;;;;;;;15.37;8.00;;;;;;;10.02;100.00;99678.56;5076003;28;20227;-84
2022/09/20 07:19:40;;;;;;;16.27;7.77;;;;;;;10.14;100.00;99679.72;5074200;28;20200;-84
2022/09/20 07:22:08;;;;;;;13.57;7.43;;;;;;;10.14;100.00;99681.50;5077227;28;20305;-84
2022/09/20 07:24:37;;;;;;;12.93;7.57;;;;;;;10.21;100.00;99682.88;5074075;28;20332;-83
2022/09/20 07:27:06;;;;;;;16.97;7.30;;;;;;;10.47;100.00;99674.41;5075716;28;20709;-83
2022/09/20 07:29:35;;;;;;;14.37;7.13;;;;;;;10.64;100.00;99673.47;5071393;28;20254;-83
2022/09/20 07:32:03;;;;;;;11.60;6.87;;;;;;;10.70;100.00;99677.53;5070646;28;20192;-83
2022/09/20 07:34:32;;;;;;;12.97;6.73;;;;;;;10.58;100.00;99671.16;5069660;28;20232;-82
2022/09/20 07:37:03;;;;;;;15.60;6.83;;;;;;;10.53;100.00;99671.41;5070305;28;20204;-82
2022/09/20 07:39:31;;;;;;;15.60;6.70;;;;;;;10.59;100.00;99668.41;5071346;28;20184;-82
2022/09/20 07:42:04;;;;;;;11.43;6.33;;;;;;;10.67;100.00;99667.13;5071640;28;20258;-84
2022/09/20 07:44:33;;;;;;;14.43;6.30;;;;;;;10.77;100.00;99669.16;5039129;28;20195;-82
2022/09/20 07:47:02;;;;;;;16.63;5.90;;;;;;;10.86;100.00;99670.44;5050543;28;20246;-82
2022/09/20 07:49:30;;;;;;;12.63;4.90;;;;;;;10.80;100.00;99663.69;5042773;28;20714;-82
2022/09/20 07:51:59;;;;;;;9.93;4.53;;;;;;;10.90;100.00;99679.91;5048384;28;20225;-82
2022/09/20 07:54:30;;;;;;;13.23;5.07;;;;;;;10.89;100.00;99671.13;5013441;28;20203;-82
2022/09/20 07:56:58;;;;;;;11.83;4.03;;;;;;;11.03;100.00;99664.19;5011174;28;20190;-82
2022/09/20 07:59:27;;;;;;;10.63;4.53;;;;;;;11.09;100.00;99674.41;5008667;28;20197;-82
2022/09/20 08:01:57;;;;;;;9.83;3.73;;;;;;;10.96;100.00;99673.44;5008534;28;20191;-80
2022/09/20 08:04:26;;;;;;;10.27;3.70;;;;;;;11.25;100.00;99666.44;5008135;28;20198;-80
2022/09/20 08:06:54;;;;;;;11.20;3.60;;;;;;;11.27;100.00;99669.84;5004413;28;20246;-80
2022/09/20 08:09:25;;;;;;;11.67;3.80;;;;;;;11.44;100.00;99667.91;4935543;29;20213;-80
2022/09/20 08:11:57;;;;;;;10.97;4.20;;;;;;;11.43;100.00;99670.66;4957667;28;20210;-80
2022/09/20 08:14:26;;;;;;;10.60;4.40;;;;;;;11.64;100.00;99679.13;5010226;28;20190;-80
2022/09/20 08:16:58;;;;;;;7.67;3.47;;;;;;;11.79;100.00;99677.38;5013765;28;20210;-80
2022/09/20 08:19:27;;;;;;;15.43;4.07;;;;;;;11.95;100.00;99675.50;5010700;28;20233;-81
2022/09/20 08:21:56;;;;;;;10.40;3.73;;;;;;;12.03;100.00;99675.88;5009962;28;20202;-80
2022/09/20 08:24:26;;;;;;;7.37;3.10;;;;;;;12.10;100.00;99679.88;5009563;28;20194;-81
2022/09/20 08:26:54;;;;;;;10.63;3.90;;;;;;;12.01;100.00;99675.13;5023118;28;20223;-80
2022/09/20 08:29:24;;;;;;;10.60;3.60;;;;;;;12.15;100.00;99671.63;5073412;28;20196;-80
2022/09/20 08:31:56;;;;;;;11.23;3.70;;;;;;;12.27;100.00;99679.69;5074072;28;20189;-81
2022/09/20 08:34:25;;;;;;;11.47;3.10;;;;;;;12.27;100.00;99670.88;5070649;28;20234;-81
2022/09/20 08:36:55;;;;;;;15.67;3.90;;;;;;;12.34;100.00;99674.81;5029786;28;20220;-80
2022/09/20 08:39:24;;;;;;;13.77;3.60;;;;;;;12.32;100.00;99676.72;5051308;28;20713;-81
2022/09/20 08:42:19;;;;;;;8.33;3.10;;;;;;;12.38;100.00;99672.84;5074093;28;20196;-80
2022/09/20 08:44:55;;;;;;;9.93;3.30;;;;;;;12.43;100.00;99676.06;5069212;28;20195;-81
2022/09/20 08:47:29;;;;;;;10.47;3.60;;;;;;;12.63;100.00;99666.81;5074830;28;20227;-81
2022/09/20 08:50:00;;;;;;;9.10;3.13;;;;;;;12.82;100.00;99669.97;5069472;28;20293;-80
2022/09/20 08:52:38;;;;;;;6.73;3.17;;;;;;;12.92;100.00;99673.75;5071812;28;20189;-80
2022/09/20 08:55:15;;;;;;;10.23;3.07;;;;;;;12.99;100.00;99669.75;5074524;28;20341;-80
2022/09/20 08:57:49;;;;;;;7.43;2.80;;;;;;;13.06;100.00;99672.84;5012711;28;20222;-80
2022/09/20 09:00:21;;;;;;;9.23;3.13;;;;;;;13.04;100.00;99664.13;4930926;29;20224;-81
2022/09/20 09:02:54;;;;;;;7.47;2.53;;;;;;;13.22;100.00;99670.03;4934757;29;20289;-80
2022/09/20 09:05:34;;;;;;;7.27;2.40;;;;;;;13.25;100.00;99669.88;4934655;29;20193;-80
2022/09/20 09:08:06;;;;;;;11.13;3.17;;;;;;;13.37;100.00;99669.88;4932579;29;20213;-81
2022/09/20 09:10:39;;;;;;;10.23;2.50;;;;;;;13.48;100.00;99669.16;4931150;29;20189;-80
2022/09/20 09:13:18;;;;;;;7.90;2.30;;;;;;;13.46;100.00;99665.75;4928702;29;20231;-81
2022/09/20 09:15:55;;;;;;;10.63;2.80;;;;;;;13.63;100.00;99670.78;4957117;28;20202;-81
2022/09/20 09:18:32;;;;;;;8.00;2.43;;;;;;;13.88;100.00;99669.09;5026221;28;20627;-81
2022/09/20 09:21:03;;;;;;;9.00;2.40;;;;;;;13.97;100.00;99669.28;5072281;28;20192;-81
2022/09/20 09:23:40;;;;;;;6.83;2.23;;;;;;;13.79;100.00;99673.22;5048858;28;20770;-81
2022/09/20 09:26:17;;;;;;;5.70;2.40;;;;;;;14.02;100.00;99667.19;5048671;28;20257;-81
2022/09/20 09:29:03;;;;;;;7.27;2.27;;;;;;;14.06;100.00;99667.81;5049062;28;20216;-82
2022/09/20 09:31:34;;;;;;;10.87;2.00;;;;;;;13.97;100.00;99671.97;5052641;28;20189;-86
2022/09/20 09:34:04;;;;;;;8.20;2.47;;;;;;;14.45;100.00;99668.63;5050865;28;20200;-86
2022/09/20 09:36:43;;;;;;;6.57;2.30;;;;;;;14.38;100.00;99665.53;5041606;28;20371;-86
2022/09/20 09:39:16;;;;;;;9.57;2.53;;;;;;;14.68;100.00;99659.00;5047004;28;20201;-87
2022/09/20 09:41:45;;;;;;;10.47;2.00;;;;;;;14.93;100.00;99663.34;5055973;28;20231;-88
2022/09/20 09:44:24;;;;;;;10.70;2.30;;;;;;;14.70;100.00;99667.72;5073993;28;20188;-87
2022/09/20 09:46:57;;;;;;;6.43;1.90;;;;;;;14.72;100.00;99658.63;5069739;28;20188;-86
2022/09/20 09:49:29;;;;;;;9.60;2.23;;;;;;;14.75;100.00;99654.88;5072014;28;20373;-87
2022/09/20 09:52:04;;;;;;;9.10;2.00;;;;;;;14.79;100.00;99659.06;5072691;28;20193;-85
2022/09/20 09:54:36;;;;;;;5.97;1.80;;;;;;;14.73;100.00;99657.69;5070077;28;20227;-85
2022/09/20 09:57:32;;;;;;;8.70;2.03;;;;;;;14.96;100.00;99656.00;5038409;28;20196;-86
2022/09/20 10:00:10;;;;;;;8.43;1.80;;;;;;;15.22;100.00;99645.19;5073055;28;20234;-87
2022/09/20 10:06:24;;;;;;;4.73;1.90;;;;;;;14.92;100.00;99653.66;5131216;27;21098;-86
2022/09/20 10:09:03;;;;;;;9.00;1.90;;;;;;;15.12;100.00;99643.19;5130745;27;20198;-86
2022/09/20 10:11:40;;;;;;;7.83;1.50;;;;;;;15.09;100.00;99651.44;5131222;27;20702;-86
2022/09/20 10:14:28;;;;;;;7.93;1.60;;;;;;;15.07;100.00;99645.38;5124792;27;20218;-86
2022/09/20 10:17:13;;;;;;;5.87;1.60;;;;;;;14.73;100.00;99654.16;5131354;27;20236;-86
2022/09/20 10:20:06;;;;;;;5.33;1.43;;;;;;;15.12;100.00;99639.69;5128283;28;20190;-86
2022/09/20 10:22:46;;;;;;;8.23;1.63;;;;;;;15.04;100.00;99644.72;5127446;27;20217;-87
2022/09/20 10:25:42;;;;;;;8.70;1.60;;;;;;;15.04;100.00;99642.91;5131223;27;20225;-82
2022/09/20 10:28:29;;;;;;;9.70;1.83;;;;;;;15.32;100.00;99640.84;5129743;27;20251;-82
2022/09/20 10:31:12;;;;;;;7.93;1.77;;;;;;;15.54;100.00;99640.94;5130575;27;20222;-82
2022/09/20 10:33:51;;;;;;;7.47;1.60;;;;;;;15.28;100.00;99632.22;5131128;27;20229;-82
2022/09/20 10:36:32;;;;;;;4.13;1.20;;;;;;;15.31;100.00;99629.31;5123843;27;20225;-81
2022/09/20 10:39:10;;;;;;;8.67;1.63;;;;;;;15.62;100.00;99629.66;5130961;27;20327;-81
2022/09/20 10:44:53;;;;;;;3.60;1.33;;;;;;;15.86;100.00;99621.59;5129202;27;20720;-82
2022/09/20 10:47:31;;;;;;;4.67;1.30;;;;;;;15.85;100.00;99619.88;5128902;28;20229;-81
2022/09/20 10:50:07;;;;;;;6.37;1.70;;;;;;;16.25;100.00;99622.91;5132027;27;20258;-82
2022/09/20 10:52:52;;;;;;;5.53;1.10;;;;;;;16.58;100.00;99617.50;5125344;27;20190;-82
2022/09/20 10:55:32;;;;;;;5.70;1.50;;;;;;;16.53;100.00;99618.88;5130473;27;20194;-82
2022/09/20 10:58:26;;;;;;;6.53;1.20;;;;;;;17.14;100.00;99625.38;5130020;27;20187;-82
2022/09/20 11:01:03;;;;;;;6.83;1.70;;;;;;;16.39;96.44;99611.94;5132684;27;20186;-82
2022/09/20 11:03:50;;;;;;;7.33;1.03;;;;;;;16.49;91.40;99620.06;5130888;27;20202;-82
2022/09/20 11:06:26;;;;;;;5.30;1.43;;;;;;;16.89;96.01;99628.44;5121343;27;20218;-82
2022/09/20 11:09:00;;;;;;;4.70;1.17;;;;;;;17.44;92.68;99626.47;5126378;27;20190;-82
2022/09/20 11:11:37;;;;;;;6.00;1.40;;;;;;;17.70;89.68;99618.91;5128356;27;20694;-83
2022/09/20 11:14:11;;;;;;;6.33;1.20;;;;;;;18.00;86.98;99620.75;5132605;27;20210;-82
2022/09/20 11:16:46;;;;;;;3.13;1.17;;;;;;;18.13;84.77;99628.56;5082449;28;20210;-82
2022/09/20 11:19:25;;;;;;;3.87;1.10;;;;;;;18.29;74.91;99628.94;5116575;28;20187;-82
2022/09/20 11:22:00;;;;;;;3.40;1.20;;;;;;;18.38;70.20;99619.22;5109421;28;20195;-82
2022/09/20 11:24:36;;;;;;;3.20;1.10;;;;;;;18.13;68.48;99623.22;5114501;28;20193;-81
2022/09/20 11:27:14;;;;;;;3.20;1.00;;;;;;;18.31;64.30;99630.47;5113471;28;20190;-82
2022/09/20 11:29:49;;;;;;;4.03;0.90;;;;;;;17.66;62.75;99637.06;5116373;28;20187;-82
2022/09/20 11:32:24;;;;;;;5.53;1.20;;;;;;;17.62;72.15;99638.28;5116111;28;20240;-82
2022/09/20 11:34:56;;;;;;;5.87;1.20;;;;;;;17.97;71.64;99631.75;5111261;28;20190;-82
2022/09/20 11:37:32;;;;;;;4.90;1.20;;;;;;;18.24;67.40;99632.03;5115084;28;20214;-82
2022/09/20 11:40:08;;;;;;;3.10;1.30;;;;;;;18.49;64.47;99635.19;5118606;27;20229;-83
2022/09/20 11:42:41;;;;;;;1.50;0.70;;;;;;;18.60;60.83;99632.41;5118771;27;20205;-81
2022/09/20 11:45:12;;;;;;;3.90;1.07;;;;;;;18.98;61.19;99631.66;5106870;28;20310;-83
2022/09/20 11:47:44;;;;;;;4.30;0.90;;;;;;;19.52;60.76;99632.06;5110608;28;20270;-82
2022/09/20 11:51:07;;;;;;;4.00;1.20;;;;;;;19.69;59.12;99621.47;5115422;28;20726;-82
2022/09/20 11:53:50;;;;;;;2.93;0.80;;;;;;;20.26;57.39;99614.16;5093826;28;20223;-82
2022/09/20 11:56:21;;;;;;;3.80;0.90;;;;;;;20.36;51.95;99614.13;5079646;28;20190;-83
2022/09/20 11:58:54;;;;;;;2.40;1.17;;;;;;;20.10;52.20;99616.66;5110941;28;20258;-83
2022/09/20 12:01:28;;;;;;;4.07;1.03;;;;;;;20.27;51.84;99610.50;5113274;28;20203;-83
2022/09/20 12:03:58;;;;;;;3.20;0.90;;;;;;;20.24;53.46;99602.72;5115259;28;20681;-83
2022/09/20 12:06:47;;;;;;;4.43;1.10;;;;;;;20.00;58.82;99608.63;5114156;28;20309;-83
2022/09/20 12:09:30;;;;;;;4.20;1.10;;;;;;;19.30;58.16;99600.97;5110224;28;20207;-82
2022/09/20 12:11:59;;;;;;;3.87;0.87;;;;;;;18.81;59.43;99613.53;5108969;28;20187;-82
2022/09/20 12:14:31;;;;;;;2.93;1.20;;;;;;;18.56;58.43;99615.75;5094249;28;20187;-82
2022/09/20 12:16:59;;;;;;;5.30;1.10;;;;;;;18.23;64.23;99616.03;5090292;28;20211;-82
2022/09/20 12:19:40;;;;;;;3.10;0.97;;;;;;;17.78;65.63;99619.09;5109488;28;20642;-82
2022/09/20 12:22:28;;;;;;;2.40;0.90;;;;;;;17.40;67.19;99608.97;5114161;28;20187;-82
2022/09/20 12:25:34;;;;;;;3.27;1.00;;;;;;;17.43;66.61;99611.38;5114106;27;20191;-82
2022/09/20 12:28:04;;;;;;;5.27;1.10;;;;;;;17.38;69.40;99614.47;5116145;28;20198;-83
2022/09/20 12:30:33;;;;;;;6.70;2.07;;;;;;;16.82;73.52;99608.50;5114803;28;20218;-82
2022/09/20 12:33:05;;;;;;;2.83;1.03;;;;;;;17.64;70.56;99604.16;5112374;28;20241;-82
2022/09/20 12:35:59;;;;;;;3.03;1.30;;;;;;;17.96;64.04;99601.44;5114917;27;20223;-82
2022/09/20 12:38:45;;;;;;;6.10;2.00;;;;;;;17.56;73.46;99590.56;5111262;28;20252;-81